createdAt,value
2022-08-08T00:00:54.008Z,3.97
2022-08-08T00:02:43.680Z,2.03
2022-08-08T00:05:43.983Z,1.90
2022-08-08T00:08:31.052Z,7.65
2022-08-08T00:11:21.887Z,3.05
2022-08-08T00:14:15.172Z,3.03
2022-08-08T00:17:22.809Z,2.63
2022-08-08T00:20:14.594Z,8.73
2022-08-08T00:22:50.211Z,3.58
2022-08-08T00:25:28.596Z,6.65
2022-08-08T00:28:34.133Z,3.80
2022-08-08T00:32:20.810Z,3.65
2022-08-08T00:34:37.331Z,3.45
2022-08-08T00:37:45.294Z,2.83
2022-08-08T00:41:09.056Z,3.78
2022-08-08T00:43:40.182Z,4.80
2022-08-08T00:46:32.100Z,3.78
2022-08-08T00:49:42.280Z,4.45
2022-08-08T00:52:48.734Z,3.17
2022-08-08T00:55:59.917Z,2.85
2022-08-08T00:59:02.806Z,3.08
2022-08-08T01:01:38.129Z,2.63
2022-08-08T01:04:31.569Z,2.95
2022-08-08T01:07:55.027Z,2.60
2022-08-08T01:10:45.953Z,3.17
2022-08-08T01:13:43.298Z,2.45
2022-08-08T01:16:29.879Z,4.78
2022-08-08T01:19:52.020Z,2.53
2022-08-08T01:22:50.582Z,4.03
2022-08-08T01:26:02.235Z,4.43
2022-08-08T01:29:08.276Z,4.75
2022-08-08T01:32:12.913Z,2.25
2022-08-08T01:35:19.022Z,2.40
2022-08-08T01:38:00.617Z,2.22
2022-08-08T01:40:42.001Z,3.45
2022-08-08T01:43:18.248Z,2.42
2022-08-08T01:46:09.068Z,2.47
2022-08-08T01:49:10.904Z,3.38
2022-08-08T01:52:28.086Z,5.45
2022-08-08T01:56:25.972Z,2.00
2022-08-08T01:58:47.137Z,5.25
2022-08-08T02:02:02.924Z,1.75
2022-08-08T02:04:45.626Z,1.48
2022-08-08T02:07:41.611Z,1.58
2022-08-08T02:10:13.441Z,4.93
2022-08-08T02:13:06.941Z,2.15
2022-08-08T02:16:00.635Z,3.88
2022-08-08T02:18:58.537Z,2.28
2022-08-08T02:21:56.759Z,3.35
2022-08-08T02:24:36.678Z,4.57
2022-08-08T02:27:15.244Z,3.53
2022-08-08T02:30:20.615Z,1.95
2022-08-08T02:32:53.643Z,4.35
2022-08-08T02:36:04.306Z,1.70
2022-08-08T02:38:44.753Z,2.75
2022-08-08T02:41:58.998Z,2.63
2022-08-08T02:44:56.380Z,2.90
2022-08-08T02:47:55.087Z,3.67
2022-08-08T02:50:30.698Z,3.47
2022-08-08T02:53:27.372Z,3.50
2022-08-08T02:56:41.314Z,3.75
2022-08-08T02:59:57.041Z,2.55
2022-08-08T03:03:07.911Z,2.22
2022-08-08T03:05:57.578Z,1.25
2022-08-08T03:08:35.689Z,2.67
2022-08-08T03:11:47.365Z,1.83
2022-08-08T03:16:00.905Z,2.35
2022-08-08T03:17:59.716Z,3.70
2022-08-08T03:20:52.382Z,3.53
2022-08-08T03:23:24.383Z,3.15
2022-08-08T03:26:12.276Z,3.15
2022-08-08T03:29:04.395Z,3.83
2022-08-08T03:32:09.137Z,1.20
2022-08-08T03:34:41.654Z,2.08
2022-08-08T03:38:00.137Z,1.77
2022-08-08T03:40:30.278Z,7.25
2022-08-08T03:46:05.980Z,2.83
2022-08-08T03:49:38.155Z,3.55
2022-08-08T03:51:50.401Z,1.52
2022-08-08T03:54:41.155Z,3.72
2022-08-08T03:58:29.878Z,1.38
2022-08-08T04:00:18.280Z,2.72
2022-08-08T04:05:48.113Z,4.25
2022-08-08T04:08:33.629Z,3.72
2022-08-08T04:11:11.334Z,3.33
2022-08-08T04:16:38.875Z,4.07
2022-08-08T04:19:25.169Z,1.55
2022-08-08T04:21:55.210Z,2.20
2022-08-08T04:24:29.660Z,5.90
2022-08-08T04:27:42.796Z,9.45
2022-08-08T04:30:18.229Z,5.88
2022-08-08T04:32:50.382Z,6.05
2022-08-08T04:35:22.832Z,5.72
2022-08-08T04:37:54.244Z,4.25
2022-08-08T04:40:25.827Z,2.25
2022-08-08T04:42:56.827Z,2.90
2022-08-08T04:45:34.098Z,1.40
2022-08-08T04:48:04.876Z,2.33
2022-08-08T04:50:38.272Z,0.73
2022-08-08T04:53:52.476Z,1.30
2022-08-08T04:55:57.715Z,2.03
2022-08-08T04:58:27.077Z,2.03
2022-08-08T05:00:56.835Z,2.22
2022-08-08T05:04:11.160Z,3.38
2022-08-08T05:06:18.595Z,2.40
2022-08-08T05:08:54.915Z,1.17
2022-08-08T05:11:26.235Z,0.90
2022-08-08T05:13:58.626Z,1.20
2022-08-08T05:16:54.719Z,1.45
2022-08-08T05:20:12.277Z,2.47
2022-08-08T05:22:12.663Z,1.80
2022-08-08T05:24:48.151Z,1.63
2022-08-08T05:27:19.001Z,2.85
2022-08-08T05:29:51.854Z,0.80
2022-08-08T05:32:24.587Z,0.43
2022-08-08T05:34:58.556Z,0.68
2022-08-08T05:37:49.230Z,1.58
2022-08-08T05:40:21.500Z,0.77
2022-08-08T05:43:39.125Z,0.70
2022-08-08T05:46:02.889Z,2.75
2022-08-08T05:48:36.314Z,1.23
2022-08-08T05:51:14.417Z,0.95
2022-08-08T05:54:25.748Z,1.65
2022-08-08T05:56:42.464Z,1.52
2022-08-08T06:00:01.146Z,1.52
2022-08-08T06:02:40.973Z,2.60
2022-08-08T06:05:34.197Z,3.83
2022-08-08T06:08:09.990Z,2.28
2022-08-08T06:10:57.376Z,2.05
2022-08-08T06:13:36.376Z,1.27
2022-08-08T06:16:18.804Z,5.18
2022-08-08T06:18:52.593Z,0.90
2022-08-08T06:21:28.334Z,1.20
2022-08-08T06:24:22.959Z,2.28
2022-08-08T06:27:05.012Z,1.50
2022-08-08T06:29:56.872Z,1.58
2022-08-08T06:32:33.013Z,1.02
2022-08-08T06:35:30.723Z,1.70
2022-08-08T06:38:01.551Z,1.17
2022-08-08T06:40:36.915Z,1.15
2022-08-08T06:43:09.528Z,3.03
2022-08-08T06:48:10.225Z,3.70
2022-08-08T06:50:40.829Z,4.10
2022-08-08T06:53:17.341Z,7.43
2022-08-08T06:56:02.014Z,2.92
2022-08-08T06:58:33.606Z,1.75
2022-08-08T07:01:24.610Z,2.15
2022-08-08T07:04:41.592Z,1.90
2022-08-08T07:06:52.286Z,2.65
2022-08-08T07:09:27.145Z,2.33
2022-08-08T07:12:12.467Z,3.25
2022-08-08T07:15:23.391Z,1.95
2022-08-08T07:18:34.661Z,0.85
2022-08-08T07:21:18.437Z,1.17
2022-08-08T07:24:03.674Z,1.77
2022-08-08T07:26:36.215Z,3.65
2022-08-08T07:29:11.471Z,1.00
2022-08-08T07:31:50.888Z,3.67
2022-08-08T07:34:31.369Z,3.20
2022-08-08T07:37:11.541Z,2.55
2022-08-08T07:39:45.653Z,1.80
2022-08-08T07:42:33.165Z,3.10
2022-08-08T07:45:03.720Z,3.20
2022-08-08T07:47:39.042Z,1.73
2022-08-08T07:50:10.160Z,1.90
2022-08-08T07:52:43.875Z,2.30
2022-08-08T07:55:20.817Z,2.20
2022-08-08T07:58:09.300Z,2.65
2022-08-08T08:00:46.238Z,2.65
2022-08-08T08:03:43.357Z,1.80
2022-08-08T08:06:16.511Z,2.35
2022-08-08T08:09:03.295Z,2.03
2022-08-08T08:11:52.840Z,2.00
2022-08-08T08:14:33.101Z,3.67
2022-08-08T08:17:04.197Z,1.05
2022-08-08T08:19:45.906Z,2.22
2022-08-08T08:22:15.482Z,1.80
2022-08-08T08:24:54.823Z,2.35
2022-08-08T08:27:30.109Z,2.88
2022-08-08T08:29:59.625Z,3.40
2022-08-08T08:32:35.605Z,1.63
2022-08-08T08:35:06.658Z,3.90
2022-08-08T08:37:59.143Z,4.45
2022-08-08T08:40:26.801Z,3.35
2022-08-08T08:42:56.535Z,2.58
2022-08-08T08:45:26.356Z,1.38
2022-08-08T08:47:58.707Z,3.75
2022-08-08T08:50:34.898Z,0.98
2022-08-08T08:53:27.807Z,1.77
2022-08-08T08:56:02.522Z,0.88
2022-08-08T08:58:41.509Z,2.58
2022-08-08T09:01:14.849Z,1.40
2022-08-08T09:03:50.915Z,1.20
2022-08-08T09:06:28.583Z,1.65
2022-08-08T09:09:26.368Z,1.13
2022-08-08T09:12:02.048Z,0.93
2022-08-08T09:14:42.418Z,2.35
2022-08-08T09:17:40.904Z,1.83
2022-08-08T09:21:57.185Z,2.47
2022-08-08T09:23:02.985Z,2.08
2022-08-08T09:26:00.661Z,1.88
2022-08-08T09:28:38.327Z,2.95
2022-08-08T09:31:19.059Z,6.05
2022-08-08T09:34:31.055Z,8.35
2022-08-08T09:37:10.224Z,8.52
2022-08-08T09:39:52.973Z,2.55
2022-08-08T09:42:28.738Z,3.10
2022-08-08T09:46:00.939Z,3.13
2022-08-08T09:48:32.456Z,5.20
2022-08-08T09:51:05.836Z,8.40
2022-08-08T09:54:08.435Z,3.50
2022-08-08T09:56:48.646Z,3.95
2022-08-08T10:00:01.840Z,9.20
2022-08-08T10:02:26.286Z,2.65
2022-08-08T10:05:07.031Z,5.32
2022-08-08T10:07:59.833Z,3.40
2022-08-08T10:10:37.439Z,3.22
2022-08-08T10:13:32.122Z,3.22
2022-08-08T10:16:03.870Z,2.67
2022-08-08T10:18:34.773Z,3.70
2022-08-08T10:21:25.596Z,2.75
2022-08-08T10:24:05.148Z,2.70
2022-08-08T10:27:00.143Z,3.00
2022-08-08T10:29:57.149Z,4.75
2022-08-08T10:32:38.124Z,2.10
2022-08-08T10:35:12.060Z,1.67
2022-08-08T10:38:03.998Z,3.75
2022-08-08T10:40:38.784Z,5.30
2022-08-08T10:43:09.771Z,4.13
2022-08-08T10:45:55.558Z,4.00
2022-08-08T10:48:56.537Z,2.22
2022-08-08T10:51:30.911Z,3.50
2022-08-08T10:54:10.415Z,2.67
2022-08-08T10:56:43.328Z,4.20
2022-08-08T10:59:14.486Z,4.50
2022-08-08T11:01:54.615Z,5.05
2022-08-08T11:04:38.652Z,3.60
2022-08-08T11:07:11.468Z,3.45
2022-08-08T11:10:04.403Z,3.38
2022-08-08T11:12:38.366Z,2.38
2022-08-08T11:15:08.129Z,4.35
2022-08-08T11:18:00.509Z,2.20
2022-08-08T11:20:31.020Z,4.47
2022-08-08T11:23:05.742Z,2.53
2022-08-08T11:25:51.779Z,1.48
2022-08-08T11:28:29.610Z,1.88
2022-08-08T11:31:06.449Z,3.33
2022-08-08T11:33:52.703Z,1.70
2022-08-08T11:36:29.570Z,1.77
2022-08-08T11:38:59.833Z,2.28
2022-08-08T11:41:33.465Z,2.88
2022-08-08T11:44:05.587Z,4.07
2022-08-08T11:46:36.835Z,6.78
2022-08-08T11:49:10.869Z,2.50
2022-08-08T11:51:49.825Z,2.75
2022-08-08T11:54:31.203Z,2.53
2022-08-08T11:57:34.876Z,5.10
2022-08-08T12:00:09.810Z,3.00
2022-08-08T12:02:51.215Z,1.67
2022-08-08T12:05:33.696Z,4.18
2022-08-08T12:08:04.351Z,5.20
2022-08-08T12:10:36.437Z,1.52
2022-08-08T12:13:09.758Z,3.42
2022-08-08T12:15:46.862Z,3.25
2022-08-08T12:18:25.918Z,4.93
2022-08-08T12:20:58.853Z,2.20
2022-08-08T12:23:40.129Z,2.67
2022-08-08T12:26:28.472Z,3.60
2022-08-08T12:29:40.841Z,4.95
2022-08-08T12:32:19.750Z,2.13
2022-08-08T12:35:17.774Z,3.67
2022-08-08T12:38:02.392Z,3.17
2022-08-08T12:40:54.230Z,3.50
2022-08-08T12:43:47.633Z,5.50
2022-08-08T12:46:26.769Z,3.15
2022-08-08T12:51:59.019Z,3.95
2022-08-08T12:54:36.232Z,3.47
2022-08-08T12:57:26.404Z,2.50
2022-08-08T13:00:03.668Z,4.35
2022-08-08T13:02:42.294Z,6.00
2022-08-08T13:05:26.285Z,3.28
2022-08-08T13:08:23.357Z,6.38
2022-08-08T13:11:05.930Z,5.27
2022-08-08T13:13:39.355Z,6.18
2022-08-08T13:16:26.293Z,7.05
2022-08-08T13:19:06.781Z,3.97
2022-08-08T13:21:58.238Z,4.05
2022-08-08T13:24:47.919Z,5.55
2022-08-08T13:27:20.593Z,5.70
2022-08-08T13:29:54.206Z,6.70
2022-08-08T13:32:25.362Z,4.63
2022-08-08T13:34:57.210Z,5.60
2022-08-08T13:38:04.671Z,3.70
2022-08-08T13:40:27.317Z,5.45
2022-08-08T13:42:58.000Z,6.07
2022-08-08T13:45:27.736Z,5.65
2022-08-08T13:48:01.627Z,3.03
2022-08-08T13:50:49.287Z,4.25
2022-08-08T13:53:36.800Z,4.60
2022-08-08T13:56:11.565Z,5.68
2022-08-08T13:58:57.199Z,6.28
2022-08-08T14:01:52.876Z,3.40
2022-08-08T14:04:24.878Z,6.65
2022-08-08T14:07:11.282Z,4.28
2022-08-08T14:10:02.186Z,6.63
2022-08-08T14:12:34.388Z,4.40
2022-08-08T14:15:04.451Z,3.88
2022-08-08T14:17:57.631Z,4.00
2022-08-08T14:20:57.879Z,4.15
2022-08-08T14:24:04.366Z,4.30
2022-08-08T14:26:29.026Z,4.60
2022-08-08T14:29:11.457Z,5.78
2022-08-08T14:32:09.064Z,4.03
2022-08-08T14:34:39.487Z,4.53
2022-08-08T14:37:13.547Z,3.05
2022-08-08T14:40:06.179Z,4.32
2022-08-08T14:42:54.415Z,4.25
2022-08-08T14:45:33.295Z,5.35
2022-08-08T14:48:34.906Z,3.88
2022-08-08T14:51:08.390Z,4.22
2022-08-08T14:53:55.073Z,4.07
2022-08-08T14:56:26.804Z,3.88
2022-08-08T14:58:58.668Z,3.17
2022-08-08T15:01:37.411Z,2.35
2022-08-08T15:04:12.440Z,4.38
2022-08-08T15:06:44.451Z,4.68
2022-08-08T15:09:14.754Z,3.58
2022-08-08T15:11:53.018Z,2.53
2022-08-08T15:14:25.218Z,3.72
2022-08-08T15:16:57.167Z,2.80
2022-08-08T15:19:28.142Z,5.70
2022-08-08T15:21:58.263Z,3.90
2022-08-08T15:24:31.129Z,5.15
2022-08-08T15:27:12.035Z,4.43
2022-08-08T15:29:51.489Z,5.47
2022-08-08T15:32:23.105Z,3.42
2022-08-08T15:34:53.732Z,2.72
2022-08-08T15:37:24.440Z,3.90
2022-08-08T15:39:55.384Z,3.72
2022-08-08T15:42:32.657Z,3.50
2022-08-08T15:45:04.026Z,4.25
2022-08-08T15:47:33.560Z,7.80
2022-08-08T15:50:03.414Z,2.80
2022-08-08T15:52:33.306Z,2.88
2022-08-08T15:55:03.618Z,4.85
2022-08-08T15:57:35.300Z,3.03
2022-08-08T16:00:27.332Z,4.03
2022-08-08T16:02:59.254Z,3.63
2022-08-08T16:05:35.595Z,3.17
2022-08-08T16:08:19.999Z,4.10
2022-08-08T16:13:21.206Z,4.43
2022-08-08T16:13:46.359Z,4.82
2022-08-08T16:16:17.966Z,5.63
2022-08-08T16:18:57.432Z,3.60
2022-08-08T16:21:32.135Z,3.20
2022-08-08T16:24:03.948Z,3.65
2022-08-08T16:26:36.060Z,4.60
2022-08-08T16:29:09.622Z,4.30
2022-08-08T16:31:48.301Z,4.07
2022-08-08T16:34:21.201Z,4.30
2022-08-08T16:36:51.256Z,4.30
2022-08-08T16:40:01.039Z,5.28
2022-08-08T16:42:18.574Z,6.22
2022-08-08T16:44:54.507Z,6.53
2022-08-08T16:47:40.005Z,4.45
2022-08-08T16:50:16.178Z,5.10
2022-08-08T16:55:22.688Z,5.15
2022-08-08T16:55:53.772Z,5.93
2022-08-08T16:58:26.366Z,9.77
2022-08-08T17:01:16.147Z,7.45
2022-08-08T17:04:00.558Z,7.55
2022-08-08T17:06:37.743Z,7.47
2022-08-08T17:09:15.458Z,6.43
2022-08-08T17:11:48.708Z,7.35
2022-08-08T17:14:27.506Z,9.95
2022-08-08T17:16:58.920Z,5.97
2022-08-08T17:19:31.915Z,4.93
2022-08-08T17:22:10.912Z,7.07
2022-08-08T17:24:41.922Z,3.83
2022-08-08T17:27:11.288Z,7.20
2022-08-08T17:29:43.750Z,5.32
2022-08-08T17:32:28.868Z,6.85
2022-08-08T17:35:54.206Z,3.40
2022-08-08T17:37:54.075Z,3.97
2022-08-08T17:40:25.355Z,3.55
2022-08-08T17:42:55.185Z,5.72
2022-08-08T17:45:24.588Z,4.13
2022-08-08T17:47:54.979Z,3.28
2022-08-08T17:50:26.080Z,4.22
2022-08-08T17:52:56.392Z,2.95
2022-08-08T17:56:04.873Z,3.72
2022-08-08T17:58:17.534Z,8.13
2022-08-08T18:00:54.458Z,5.85
2022-08-08T18:03:26.558Z,4.72
2022-08-08T18:05:56.219Z,3.60
2022-08-08T18:08:41.195Z,4.05
2022-08-08T18:11:16.296Z,5.32
2022-08-08T18:13:47.871Z,6.32
2022-08-08T18:16:23.150Z,6.15
2022-08-08T18:18:56.197Z,5.43
2022-08-08T18:22:00.430Z,6.25
2022-08-08T18:26:55.840Z,5.22
2022-08-08T18:29:33.259Z,5.55
2022-08-08T18:32:07.835Z,6.38
2022-08-08T18:34:38.841Z,4.95
2022-08-08T18:37:09.833Z,4.15
2022-08-08T18:39:47.161Z,4.45
2022-08-08T18:42:17.773Z,7.47
2022-08-08T18:44:56.064Z,4.35
2022-08-08T18:47:28.401Z,4.15
2022-08-08T18:50:02.718Z,4.10
2022-08-08T18:52:36.878Z,3.97
2022-08-08T18:55:10.840Z,6.28
2022-08-08T18:57:45.011Z,5.15
2022-08-08T19:00:20.601Z,4.10
2022-08-08T19:02:55.245Z,4.75
2022-08-08T19:05:32.470Z,5.00
2022-08-08T19:08:25.714Z,4.82
2022-08-08T19:11:01.892Z,5.78
2022-08-08T19:13:47.304Z,5.82
2022-08-08T19:16:23.501Z,7.85
2022-08-08T19:19:02.051Z,6.80
2022-08-08T19:21:48.839Z,9.20
2022-08-08T19:24:39.307Z,7.35
2022-08-08T19:27:11.002Z,4.47
2022-08-08T19:29:45.909Z,6.13
2022-08-08T19:32:21.705Z,6.25
2022-08-08T19:34:52.758Z,7.03
2022-08-08T19:37:43.498Z,5.80
2022-08-08T19:40:16.212Z,7.05
2022-08-08T19:42:47.232Z,7.57
2022-08-08T19:45:59.185Z,5.07
2022-08-08T19:48:29.256Z,4.50
2022-08-08T19:50:57.414Z,4.35
2022-08-08T19:53:50.857Z,6.68
2022-08-08T19:56:39.358Z,4.68
2022-08-08T19:59:07.550Z,6.63
2022-08-08T20:01:59.799Z,3.88
2022-08-08T20:04:26.747Z,3.20
2022-08-08T20:06:56.684Z,6.43
2022-08-08T20:09:30.130Z,4.28
2022-08-08T20:12:01.786Z,4.68
2022-08-08T20:14:36.135Z,5.07
2022-08-08T20:17:11.600Z,6.78
2022-08-08T20:19:42.369Z,4.88
2022-08-08T20:22:20.511Z,6.17
2022-08-08T20:24:50.870Z,5.68
2022-08-08T20:27:22.086Z,7.20
2022-08-08T20:30:00.179Z,4.57
2022-08-08T20:32:31.908Z,5.00
2022-08-08T20:35:02.825Z,5.05
2022-08-08T20:37:37.334Z,4.60
2022-08-08T20:40:38.758Z,5.25
2022-08-08T20:43:13.200Z,4.68
2022-08-08T20:45:58.070Z,4.85
2022-08-08T20:48:32.491Z,5.10
2022-08-08T20:51:07.048Z,4.32
2022-08-08T20:53:59.360Z,6.38
2022-08-08T20:56:35.802Z,6.97
2022-08-08T20:59:09.404Z,3.17
2022-08-08T21:02:05.337Z,6.53
2022-08-08T21:04:28.856Z,4.95
2022-08-08T21:06:58.497Z,4.22
2022-08-08T21:09:31.473Z,4.68
2022-08-08T21:12:17.837Z,3.78
2022-08-08T21:14:54.096Z,2.70
2022-08-08T21:17:23.750Z,2.13
2022-08-08T21:19:53.022Z,6.45
2022-08-08T21:22:28.826Z,4.65
2022-08-08T21:24:58.386Z,2.47
2022-08-08T21:28:06.362Z,3.42
2022-08-08T21:30:21.877Z,2.13
2022-08-08T21:32:53.305Z,3.70
2022-08-08T21:36:17.526Z,4.15
2022-08-08T21:38:16.820Z,6.63
2022-08-08T21:40:55.212Z,3.58
2022-08-08T21:43:31.106Z,5.93
2022-08-08T21:48:06.368Z,5.40
2022-08-08T21:48:56.463Z,5.05
2022-08-08T21:54:17.592Z,6.50
2022-08-08T21:54:37.544Z,4.45
2022-08-08T21:57:09.830Z,3.10
2022-08-08T22:00:01.751Z,3.95
2022-08-08T22:02:31.599Z,3.38
2022-08-08T22:05:00.790Z,5.30
2022-08-08T22:07:40.076Z,5.68
2022-08-08T22:10:18.251Z,4.38
2022-08-08T22:13:18.944Z,6.22
2022-08-08T22:15:59.066Z,6.90
2022-08-08T22:18:33.204Z,6.75
2022-08-08T22:21:14.007Z,2.60
2022-08-08T22:23:50.851Z,1.90
2022-08-08T22:26:29.276Z,7.00
2022-08-08T22:29:13.254Z,5.90
2022-08-08T22:31:58.391Z,2.10
2022-08-08T22:34:39.325Z,3.55
2022-08-08T22:37:14.915Z,3.50
2022-08-08T22:40:01.195Z,3.83
2022-08-08T22:42:34.453Z,4.32
2022-08-08T22:45:13.030Z,4.85
2022-08-08T22:47:47.007Z,4.47
2022-08-08T22:50:26.556Z,7.78
2022-08-08T22:54:28.321Z,5.45
2022-08-08T22:55:59.231Z,3.33
2022-08-08T22:58:33.803Z,3.63
2022-08-08T23:02:00.961Z,5.22
2022-08-08T23:03:59.699Z,5.10
2022-08-08T23:06:29.283Z,7.25
2022-08-08T23:09:00.154Z,5.25
2022-08-08T23:12:28.790Z,6.22
2022-08-08T23:14:22.395Z,6.85
2022-08-08T23:16:59.111Z,5.47
2022-08-08T23:19:30.615Z,6.22
2022-08-08T23:22:04.738Z,5.75
2022-08-08T23:27:07.931Z,4.80
2022-08-08T23:29:38.095Z,7.78
2022-08-08T23:32:10.430Z,7.25
2022-08-08T23:38:03.285Z,5.85
2022-08-08T23:40:22.090Z,8.75
2022-08-08T23:42:52.266Z,6.78
2022-08-08T23:48:59.779Z,12.38
2022-08-08T23:49:03.471Z,9.75
2022-08-08T23:50:59.933Z,15.90
2022-08-08T23:54:05.358Z,15.90
2022-08-08T23:56:31.951Z,14.32
2022-08-08T23:59:02.439Z,11.00
